sensor_id;sensor_type;location;lat;lon;timestamp;pressure;altitude;pressure_sealevel;temperature;humidity
22938;BME280;11634;42.734;23.298;2023-04-07T00:02:09;95112.94;;;2.03;100.00
22938;BME280;11634;42.734;23.298;2023-04-07T00:04:35;95110.47;;;1.72;100.00
22938;BME280;11634;42.734;23.298;2023-04-07T00:07:01;95111.34;;;1.57;100.00
22938;BME280;11634;42.734;23.298;2023-04-07T00:09:26;95110.00;;;1.50;100.00
22938;BME280;11634;42.734;23.298;2023-04-07T00:11:52;95085.72;;;1.26;100.00
22938;BME280;11634;42.734;23.298;2023-04-07T00:14:17;95083.91;;;1.13;100.00
22938;BME280;11634;42.734;23.298;2023-04-07T00:16:43;95092.50;;;1.12;100.00
22938;BME280;11634;42.734;23.298;2023-04-07T00:19:08;95088.97;;;0.99;100.00
22938;BME280;11634;42.734;23.298;2023-04-07T00:21:34;95042.78;;;0.54;100.00
22938;BME280;11634;42.734;23.298;2023-04-07T00:23:59;95076.81;;;0.87;100.00
22938;BME280;11634;42.734;23.298;2023-04-07T00:26:25;95020.97;;;0.48;100.00
22938;BME280;11634;42.734;23.298;2023-04-07T00:28:57;95043.59;;;0.55;100.00
22938;BME280;11634;42.734;23.298;2023-04-07T00:31:22;95044.34;;;0.57;100.00
22938;BME280;11634;42.734;23.298;2023-04-07T00:33:48;95076.06;;;0.70;100.00
22938;BME280;11634;42.734;23.298;2023-04-07T00:36:14;95073.56;;;0.84;100.00
22938;BME280;11634;42.734;23.298;2023-04-07T00:38:40;95053.09;;;0.68;100.00
22938;BME280;11634;42.734;23.298;2023-04-07T00:41:05;95085.22;;;0.74;100.00
22938;BME280;11634;42.734;23.298;2023-04-07T00:43:31;95029.06;;;0.55;100.00
22938;BME280;11634;42.734;23.298;2023-04-07T00:45:57;95002.03;;;0.35;100.00
22938;BME280;11634;42.734;23.298;2023-04-07T00:48:24;95062.69;;;0.80;100.00
22938;BME280;11634;42.734;23.298;2023-04-07T00:50:50;95022.28;;;0.54;100.00
22938;BME280;11634;42.734;23.298;2023-04-07T00:53:16;95044.69;;;0.66;100.00
22938;BME280;11634;42.734;23.298;2023-04-07T00:55:41;95047.97;;;0.68;100.00
22938;BME280;11634;42.734;23.298;2023-04-07T00:58:07;95038.28;;;0.58;100.00
22938;BME280;11634;42.734;23.298;2023-04-07T01:01:04;94999.41;;;0.36;100.00
22938;BME280;11634;42.734;23.298;2023-04-07T01:03:50;95019.72;;;0.54;100.00
22938;BME280;11634;42.734;23.298;2023-04-07T01:06:19;95045.16;;;0.73;100.00
22938;BME280;11634;42.734;23.298;2023-04-07T01:09:00;95013.13;;;0.51;100.00
22938;BME280;11634;42.734;23.298;2023-04-07T01:11:40;95019.66;;;0.56;100.00
22938;BME280;11634;42.734;23.298;2023-04-07T01:14:09;95008.44;;;0.58;100.00
22938;BME280;11634;42.734;23.298;2023-04-07T01:16:48;94993.28;;;0.54;100.00
22938;BME280;11634;42.734;23.298;2023-04-07T01:21:55;95030.72;;;0.72;100.00
22938;BME280;11634;42.734;23.298;2023-04-07T01:27:08;95027.41;;;1.01;100.00
22938;BME280;11634;42.734;23.298;2023-04-07T01:29:41;95031.69;;;1.15;100.00
22938;BME280;11634;42.734;23.298;2023-04-07T01:32:13;95051.25;;;1.32;100.00
22938;BME280;11634;42.734;23.298;2023-04-07T01:34:40;95044.50;;;1.45;100.00
22938;BME280;11634;42.734;23.298;2023-04-07T01:37:07;95001.44;;;1.22;100.00
22938;BME280;11634;42.734;23.298;2023-04-07T01:39:34;94964.38;;;0.98;100.00
22938;BME280;11634;42.734;23.298;2023-04-07T01:42:03;95034.72;;;1.37;100.00
22938;BME280;11634;42.734;23.298;2023-04-07T01:44:31;95021.31;;;1.32;100.00
22938;BME280;11634;42.734;23.298;2023-04-07T01:46:58;95033.94;;;1.51;100.00
22938;BME280;11634;42.734;23.298;2023-04-07T01:49:24;95035.25;;;1.58;100.00
22938;BME280;11634;42.734;23.298;2023-04-07T01:51:53;95008.47;;;1.48;100.00
22938;BME280;11634;42.734;23.298;2023-04-07T01:54:19;95000.41;;;1.40;100.00
22938;BME280;11634;42.734;23.298;2023-04-07T01:56:45;95005.00;;;1.49;100.00
22938;BME280;11634;42.734;23.298;2023-04-07T01:59:11;95040.97;;;1.76;100.00
22938;BME280;11634;42.734;23.298;2023-04-07T02:01:38;95035.94;;;1.75;100.00
22938;BME280;11634;42.734;23.298;2023-04-07T02:07:01;94970.72;;;1.36;100.00
22938;BME280;11634;42.734;23.298;2023-04-07T02:09:38;95012.97;;;1.58;100.00
22938;BME280;11634;42.734;23.298;2023-04-07T02:12:07;95042.06;;;1.72;100.00
22938;BME280;11634;42.734;23.298;2023-04-07T02:14:37;94994.91;;;1.46;100.00
22938;BME280;11634;42.734;23.298;2023-04-07T02:17:06;95007.63;;;1.63;100.00
22938;BME280;11634;42.734;23.298;2023-04-07T02:19:33;95024.28;;;1.69;100.00
22938;BME280;11634;42.734;23.298;2023-04-07T02:22:02;95030.91;;;1.73;100.00
22938;BME280;11634;42.734;23.298;2023-04-07T02:24:28;94994.72;;;1.49;100.00
22938;BME280;11634;42.734;23.298;2023-04-07T02:26:53;94978.44;;;1.50;100.00
22938;BME280;11634;42.734;23.298;2023-04-07T02:29:19;95030.72;;;1.90;100.00
22938;BME280;11634;42.734;23.298;2023-04-07T02:31:45;95031.19;;;1.83;100.00
22938;BME280;11634;42.734;23.298;2023-04-07T02:34:10;95009.16;;;1.65;100.00
22938;BME280;11634;42.734;23.298;2023-04-07T02:36:37;95032.72;;;1.85;100.00
22938;BME280;11634;42.734;23.298;2023-04-07T02:39:06;94994.03;;;1.61;100.00
22938;BME280;11634;42.734;23.298;2023-04-07T02:41:31;95033.66;;;1.84;100.00
22938;BME280;11634;42.734;23.298;2023-04-07T02:43:58;95022.34;;;1.73;100.00
22938;BME280;11634;42.734;23.298;2023-04-07T02:46:24;95019.91;;;1.85;100.00
22938;BME280;11634;42.734;23.298;2023-04-07T02:48:50;95012.41;;;1.82;100.00
22938;BME280;11634;42.734;23.298;2023-04-07T02:51:16;95026.41;;;1.91;100.00
22938;BME280;11634;42.734;23.298;2023-04-07T02:53:42;94970.16;;;1.60;100.00
22938;BME280;11634;42.734;23.298;2023-04-07T02:56:07;95019.38;;;1.94;100.00
22938;BME280;11634;42.734;23.298;2023-04-07T02:58:33;94996.81;;;1.85;100.00
22938;BME280;11634;42.734;23.298;2023-04-07T03:00:58;95027.66;;;1.99;100.00
22938;BME280;11634;42.734;23.298;2023-04-07T03:03:27;95016.00;;;2.08;100.00
22938;BME280;11634;42.734;23.298;2023-04-07T03:06:13;95013.16;;;2.12;100.00
22938;BME280;11634;42.734;23.298;2023-04-07T03:08:51;95037.91;;;2.13;100.00
22938;BME280;11634;42.734;23.298;2023-04-07T03:11:17;95052.41;;;2.14;100.00
22938;BME280;11634;42.734;23.298;2023-04-07T03:13:43;95049.97;;;1.97;100.00
22938;BME280;11634;42.734;23.298;2023-04-07T03:16:09;95033.91;;;1.80;100.00
22938;BME280;11634;42.734;23.298;2023-04-07T03:18:44;94928.72;;;1.09;100.00
22938;BME280;11634;42.734;23.298;2023-04-07T03:21:11;94996.19;;;1.39;100.00
22938;BME280;11634;42.734;23.298;2023-04-07T03:23:38;94987.78;;;1.21;100.00
22938;BME280;11634;42.734;23.298;2023-04-07T03:26:05;95002.28;;;1.07;100.00
22938;BME280;11634;42.734;23.298;2023-04-07T03:28:34;95013.31;;;1.23;100.00
22938;BME280;11634;42.734;23.298;2023-04-07T03:31:01;94939.63;;;0.83;100.00
22938;BME280;11634;42.734;23.298;2023-04-07T03:33:26;95027.28;;;1.17;100.00
22938;BME280;11634;42.734;23.298;2023-04-07T03:35:53;95049.69;;;1.29;100.00
22938;BME280;11634;42.734;23.298;2023-04-07T03:38:20;95019.06;;;1.42;100.00
22938;BME280;11634;42.734;23.298;2023-04-07T03:40:50;95018.16;;;1.43;100.00
22938;BME280;11634;42.734;23.298;2023-04-07T03:43:16;94984.41;;;1.21;100.00
22938;BME280;11634;42.734;23.298;2023-04-07T03:45:43;95030.03;;;1.59;100.00
22938;BME280;11634;42.734;23.298;2023-04-07T03:48:09;95003.00;;;1.54;100.00
22938;BME280;11634;42.734;23.298;2023-04-07T03:50:44;95024.16;;;1.57;100.00
22938;BME280;11634;42.734;23.298;2023-04-07T03:53:13;94962.38;;;1.32;100.00
22938;BME280;11634;42.734;23.298;2023-04-07T03:55:44;94947.88;;;1.17;100.00
22938;BME280;11634;42.734;23.298;2023-04-07T03:58:19;95041.91;;;1.89;100.00
22938;BME280;11634;42.734;23.298;2023-04-07T04:00:47;95049.78;;;1.86;100.00
22938;BME280;11634;42.734;23.298;2023-04-07T04:03:12;95019.28;;;1.53;100.00
22938;BME280;11634;42.734;23.298;2023-04-07T04:06:03;95002.06;;;1.41;100.00
22938;BME280;11634;42.734;23.298;2023-04-07T04:08:31;95063.66;;;1.98;100.00
22938;BME280;11634;42.734;23.298;2023-04-07T04:10:57;95038.50;;;1.75;100.00
22938;BME280;11634;42.734;23.298;2023-04-07T04:13:27;95083.09;;;1.72;100.00
22938;BME280;11634;42.734;23.298;2023-04-07T04:15:55;95008.47;;;1.48;100.00
22938;BME280;11634;42.734;23.298;2023-04-07T04:18:22;95029.94;;;1.61;100.00
22938;BME280;11634;42.734;23.298;2023-04-07T04:20:51;95029.41;;;1.69;100.00
22938;BME280;11634;42.734;23.298;2023-04-07T04:23:18;95071.94;;;1.87;100.00
22938;BME280;11634;42.734;23.298;2023-04-07T04:25:45;95064.06;;;1.90;100.00
22938;BME280;11634;42.734;23.298;2023-04-07T04:28:11;94966.75;;;1.16;100.00
22938;BME280;11634;42.734;23.298;2023-04-07T04:30:38;94992.94;;;1.35;100.00
22938;BME280;11634;42.734;23.298;2023-04-07T04:33:03;95050.03;;;1.68;100.00
22938;BME280;11634;42.734;23.298;2023-04-07T04:35:38;94989.28;;;1.25;100.00
22938;BME280;11634;42.734;23.298;2023-04-07T04:38:11;94989.00;;;1.30;100.00
22938;BME280;11634;42.734;23.298;2023-04-07T04:40:41;95008.06;;;1.69;100.00
22938;BME280;11634;42.734;23.298;2023-04-07T04:43:07;95054.47;;;1.94;100.00
22938;BME280;11634;42.734;23.298;2023-04-07T04:45:36;95069.06;;;2.07;100.00
22938;BME280;11634;42.734;23.298;2023-04-07T04:48:02;95043.75;;;2.01;100.00
22938;BME280;11634;42.734;23.298;2023-04-07T04:50:28;95086.69;;;2.27;100.00
22938;BME280;11634;42.734;23.298;2023-04-07T04:52:55;94982.91;;;1.75;100.00
22938;BME280;11634;42.734;23.298;2023-04-07T04:55:22;95051.59;;;2.27;100.00
22938;BME280;11634;42.734;23.298;2023-04-07T04:57:50;95021.16;;;2.08;100.00
22938;BME280;11634;42.734;23.298;2023-04-07T05:00:22;95036.38;;;2.38;100.00
22938;BME280;11634;42.734;23.298;2023-04-07T05:02:53;95045.81;;;2.66;100.00
22938;BME280;11634;42.734;23.298;2023-04-07T05:05:19;95082.13;;;2.87;100.00
22938;BME280;11634;42.734;23.298;2023-04-07T05:07:45;95052.22;;;2.72;100.00
22938;BME280;11634;42.734;23.298;2023-04-07T05:10:12;95094.78;;;2.90;100.00
22938;BME280;11634;42.734;23.298;2023-04-07T05:12:45;95048.81;;;2.58;100.00
22938;BME280;11634;42.734;23.298;2023-04-07T05:15:11;95085.44;;;2.75;100.00
22938;BME280;11634;42.734;23.298;2023-04-07T05:17:37;95107.00;;;2.87;100.00
22938;BME280;11634;42.734;23.298;2023-04-07T05:20:04;95111.53;;;3.10;100.00
22938;BME280;11634;42.734;23.298;2023-04-07T05:22:35;95078.53;;;2.90;100.00
22938;BME280;11634;42.734;23.298;2023-04-07T05:25:03;95122.44;;;3.27;100.00
22938;BME280;11634;42.734;23.298;2023-04-07T05:27:30;95065.63;;;3.18;100.00
22938;BME280;11634;42.734;23.298;2023-04-07T05:30:01;95137.97;;;3.66;100.00
22938;BME280;11634;42.734;23.298;2023-04-07T05:32:30;95069.44;;;3.38;100.00
22938;BME280;11634;42.734;23.298;2023-04-07T05:35:01;95120.09;;;3.50;100.00
22938;BME280;11634;42.734;23.298;2023-04-07T05:37:31;95129.09;;;3.83;100.00
22938;BME280;11634;42.734;23.298;2023-04-07T05:40:00;95120.31;;;3.74;100.00
22938;BME280;11634;42.734;23.298;2023-04-07T05:42:26;95138.16;;;3.89;100.00
22938;BME280;11634;42.734;23.298;2023-04-07T05:44:54;95123.41;;;3.78;100.00
22938;BME280;11634;42.734;23.298;2023-04-07T05:47:22;95148.94;;;4.08;100.00
22938;BME280;11634;42.734;23.298;2023-04-07T05:49:49;95144.13;;;4.16;100.00
22938;BME280;11634;42.734;23.298;2023-04-07T05:52:15;95102.50;;;4.09;100.00
22938;BME280;11634;42.734;23.298;2023-04-07T05:54:46;95080.56;;;4.41;100.00
22938;BME280;11634;42.734;23.298;2023-04-07T05:57:13;95134.78;;;4.52;100.00
22938;BME280;11634;42.734;23.298;2023-04-07T05:59:43;95158.72;;;4.91;100.00
22938;BME280;11634;42.734;23.298;2023-04-07T06:02:09;95138.63;;;4.96;99.32
22938;BME280;11634;42.734;23.298;2023-04-07T06:04:35;95112.72;;;4.97;95.26
22938;BME280;11634;42.734;23.298;2023-04-07T06:07:03;95111.91;;;5.09;88.45
22938;BME280;11634;42.734;23.298;2023-04-07T06:09:29;95152.97;;;5.60;88.46
22938;BME280;11634;42.734;23.298;2023-04-07T06:11:55;95146.94;;;5.85;84.08
22938;BME280;11634;42.734;23.298;2023-04-07T06:14:21;95151.88;;;5.88;82.10
22938;BME280;11634;42.734;23.298;2023-04-07T06:16:46;95090.56;;;5.43;81.12
22938;BME280;11634;42.734;23.298;2023-04-07T06:19:12;95154.28;;;6.01;80.96
22938;BME280;11634;42.734;23.298;2023-04-07T06:21:38;95131.09;;;5.89;77.93
22938;BME280;11634;42.734;23.298;2023-04-07T06:24:04;95154.28;;;6.01;78.08
22938;BME280;11634;42.734;23.298;2023-04-07T06:26:33;95158.84;;;6.21;77.06
22938;BME280;11634;42.734;23.298;2023-04-07T06:29:02;95126.44;;;6.17;74.76
22938;BME280;11634;42.734;23.298;2023-04-07T06:31:27;95124.16;;;6.36;75.13
22938;BME280;11634;42.734;23.298;2023-04-07T06:33:53;95140.31;;;6.61;74.25
22938;BME280;11634;42.734;23.298;2023-04-07T06:36:19;95148.47;;;6.79;72.60
22938;BME280;11634;42.734;23.298;2023-04-07T06:38:48;95147.34;;;7.15;71.08
22938;BME280;11634;42.734;23.298;2023-04-07T06:41:14;95158.88;;;7.66;68.83
22938;BME280;11634;42.734;23.298;2023-04-07T06:43:46;95122.97;;;8.25;66.97
22938;BME280;11634;42.734;23.298;2023-04-07T06:46:12;95134.75;;;8.18;65.56
22938;BME280;11634;42.734;23.298;2023-04-07T06:48:37;95117.00;;;7.92;64.82
22938;BME280;11634;42.734;23.298;2023-04-07T06:51:03;95115.66;;;7.66;64.28
22938;BME280;11634;42.734;23.298;2023-04-07T06:53:29;95148.47;;;7.88;64.14
22938;BME280;11634;42.734;23.298;2023-04-07T06:56:08;95157.91;;;7.56;65.33
22938;BME280;11634;42.734;23.298;2023-04-07T06:58:37;95160.47;;;8.00;65.55
22938;BME280;11634;42.734;23.298;2023-04-07T07:01:03;95139.03;;;7.98;64.28
22938;BME280;11634;42.734;23.298;2023-04-07T07:03:31;95115.06;;;8.27;64.14
22938;BME280;11634;42.734;23.298;2023-04-07T07:06:00;95140.38;;;8.75;61.96
22938;BME280;11634;42.734;23.298;2023-04-07T07:08:26;95128.75;;;8.70;61.26
22938;BME280;11634;42.734;23.298;2023-04-07T07:10:52;95148.69;;;8.89;60.85
22938;BME280;11634;42.734;23.298;2023-04-07T07:13:21;95143.75;;;8.66;61.78
22938;BME280;11634;42.734;23.298;2023-04-07T07:15:50;95153.53;;;7.89;63.22
22938;BME280;11634;42.734;23.298;2023-04-07T07:18:17;95173.81;;;7.73;64.54
22938;BME280;11634;42.734;23.298;2023-04-07T07:20:43;95150.13;;;7.89;65.84
22938;BME280;11634;42.734;23.298;2023-04-07T07:23:08;95122.06;;;7.94;63.18
22938;BME280;11634;42.734;23.298;2023-04-07T07:25:34;95139.25;;;8.88;61.54
22938;BME280;11634;42.734;23.298;2023-04-07T07:28:00;95127.22;;;8.16;53.44
22938;BME280;11634;42.734;23.298;2023-04-07T07:30:25;95171.84;;;8.81;53.48
22938;BME280;11634;42.734;23.298;2023-04-07T07:32:52;95146.16;;;8.58;52.34
22938;BME280;11634;42.734;23.298;2023-04-07T07:35:19;95159.03;;;8.18;52.29
22938;BME280;11634;42.734;23.298;2023-04-07T07:37:44;95172.22;;;8.04;52.07
22938;BME280;11634;42.734;23.298;2023-04-07T07:40:10;95112.47;;;7.85;51.35
22938;BME280;11634;42.734;23.298;2023-04-07T07:42:36;95111.16;;;7.68;51.32
22938;BME280;11634;42.734;23.298;2023-04-07T07:45:03;95152.31;;;7.40;52.09
22938;BME280;11634;42.734;23.298;2023-04-07T07:47:28;95185.22;;;7.82;51.96
22938;BME280;11634;42.734;23.298;2023-04-07T07:49:54;95197.19;;;8.05;51.35
22938;BME280;11634;42.734;23.298;2023-04-07T07:52:20;95159.91;;;7.85;51.74
22938;BME280;11634;42.734;23.298;2023-04-07T07:54:47;95160.06;;;7.62;52.06
22938;BME280;11634;42.734;23.298;2023-04-07T07:57:13;95158.84;;;7.77;52.20
22938;BME280;11634;42.734;23.298;2023-04-07T07:59:38;95141.94;;;7.40;51.96
22938;BME280;11634;42.734;23.298;2023-04-07T08:02:05;95181.34;;;7.44;52.36
22938;BME280;11634;42.734;23.298;2023-04-07T08:04:31;95111.81;;;7.07;52.42
22938;BME280;11634;42.734;23.298;2023-04-07T08:06:57;95149.91;;;7.37;52.26
22938;BME280;11634;42.734;23.298;2023-04-07T08:09:22;95172.03;;;7.85;52.28
22938;BME280;11634;42.734;23.298;2023-04-07T08:11:48;95172.22;;;7.93;51.23
22938;BME280;11634;42.734;23.298;2023-04-07T08:14:15;95157.97;;;8.20;50.97
22938;BME280;11634;42.734;23.298;2023-04-07T08:16:41;95144.38;;;8.27;51.31
22938;BME280;11634;42.734;23.298;2023-04-07T08:19:07;95182.72;;;7.91;50.98
22938;BME280;11634;42.734;23.298;2023-04-07T08:21:33;95174.72;;;8.16;51.70
22938;BME280;11634;42.734;23.298;2023-04-07T08:24:00;95160.78;;;8.59;50.51
22938;BME280;11634;42.734;23.298;2023-04-07T08:26:26;95138.91;;;8.41;50.70
22938;BME280;11634;42.734;23.298;2023-04-07T08:28:51;95194.53;;;8.37;50.23
22938;BME280;11634;42.734;23.298;2023-04-07T08:31:17;95164.56;;;8.24;50.98
22938;BME280;11634;42.734;23.298;2023-04-07T08:33:43;95183.50;;;8.24;51.04
22938;BME280;11634;42.734;23.298;2023-04-07T08:36:09;95153.81;;;8.28;50.87
22938;BME280;11634;42.734;23.298;2023-04-07T08:38:35;95187.16;;;8.22;50.83
22938;BME280;11634;42.734;23.298;2023-04-07T08:41:07;95166.56;;;8.10;50.92
22938;BME280;11634;42.734;23.298;2023-04-07T08:43:35;95189.22;;;8.50;50.27
22938;BME280;11634;42.734;23.298;2023-04-07T08:46:03;95159.28;;;8.46;50.06
22938;BME280;11634;42.734;23.298;2023-04-07T08:48:31;95182.13;;;8.52;50.29
22938;BME280;11634;42.734;23.298;2023-04-07T08:51:03;95166.22;;;8.45;50.17
22938;BME280;11634;42.734;23.298;2023-04-07T08:53:39;95190.25;;;8.58;49.78
22938;BME280;11634;42.734;23.298;2023-04-07T08:56:12;95162.53;;;8.27;49.82
22938;BME280;11634;42.734;23.298;2023-04-07T08:58:39;95158.06;;;9.01;48.99
22938;BME280;11634;42.734;23.298;2023-04-07T09:01:05;95178.97;;;8.69;49.88
22938;BME280;11634;42.734;23.298;2023-04-07T09:03:32;95179.50;;;9.24;50.01
22938;BME280;11634;42.734;23.298;2023-04-07T09:05:59;95184.19;;;9.09;49.02
22938;BME280;11634;42.734;23.298;2023-04-07T09:08:26;95150.16;;;9.03;49.25
22938;BME280;11634;42.734;23.298;2023-04-07T09:10:52;95181.75;;;9.67;49.11
22938;BME280;11634;42.734;23.298;2023-04-07T09:13:18;95179.88;;;9.69;49.08
22938;BME280;11634;42.734;23.298;2023-04-07T09:15:44;95177.44;;;9.77;49.35
22938;BME280;11634;42.734;23.298;2023-04-07T09:18:10;95192.31;;;9.75;48.86
22938;BME280;11634;42.734;23.298;2023-04-07T09:23:35;95180.63;;;9.30;49.15
22938;BME280;11634;42.734;23.298;2023-04-07T09:26:24;95181.25;;;9.73;48.72
22938;BME280;11634;42.734;23.298;2023-04-07T09:28:54;95182.81;;;9.26;49.02
22938;BME280;11634;42.734;23.298;2023-04-07T09:31:21;95188.69;;;9.07;49.51
22938;BME280;11634;42.734;23.298;2023-04-07T09:33:48;95154.00;;;8.88;49.58
22938;BME280;11634;42.734;23.298;2023-04-07T09:36:14;95146.47;;;9.05;49.68
22938;BME280;11634;42.734;23.298;2023-04-07T09:38:40;95178.38;;;9.76;49.41
22938;BME280;11634;42.734;23.298;2023-04-07T09:41:15;95176.09;;;9.03;50.08
22938;BME280;11634;42.734;23.298;2023-04-07T09:43:43;95187.72;;;8.68;51.02
22938;BME280;11634;42.734;23.298;2023-04-07T09:46:14;95190.06;;;8.39;51.33
22938;BME280;11634;42.734;23.298;2023-04-07T09:48:41;95164.91;;;8.51;51.26
22938;BME280;11634;42.734;23.298;2023-04-07T09:51:13;95195.50;;;8.36;51.95
22938;BME280;11634;42.734;23.298;2023-04-07T09:53:51;95191.59;;;8.73;52.39
22938;BME280;11634;42.734;23.298;2023-04-07T09:56:19;95198.38;;;8.54;52.73
22938;BME280;11634;42.734;23.298;2023-04-07T09:58:48;95176.59;;;8.45;52.67
22938;BME280;11634;42.734;23.298;2023-04-07T10:01:16;95201.38;;;8.70;52.71
22938;BME280;11634;42.734;23.298;2023-04-07T10:03:42;95197.06;;;8.90;52.87
22938;BME280;11634;42.734;23.298;2023-04-07T10:06:08;95201.72;;;9.17;52.13
22938;BME280;11634;42.734;23.298;2023-04-07T10:08:36;95202.75;;;9.55;51.08
22938;BME280;11634;42.734;23.298;2023-04-07T10:11:03;95192.63;;;9.52;51.68
22938;BME280;11634;42.734;23.298;2023-04-07T10:13:30;95153.59;;;9.13;50.90
22938;BME280;11634;42.734;23.298;2023-04-07T10:15:57;95198.31;;;9.36;52.04
22938;BME280;11634;42.734;23.298;2023-04-07T10:18:27;95184.19;;;8.89;52.73
22938;BME280;11634;42.734;23.298;2023-04-07T10:20:55;95180.84;;;9.18;52.40
22938;BME280;11634;42.734;23.298;2023-04-07T10:23:31;95177.84;;;8.82;53.54
22938;BME280;11634;42.734;23.298;2023-04-07T10:26:02;95175.72;;;8.87;53.68
22938;BME280;11634;42.734;23.298;2023-04-07T10:28:32;95132.47;;;8.97;53.56
22938;BME280;11634;42.734;23.298;2023-04-07T10:31:02;95158.28;;;8.98;53.08
22938;BME280;11634;42.734;23.298;2023-04-07T10:33:52;95198.63;;;9.02;52.48
22938;BME280;11634;42.734;23.298;2023-04-07T10:36:19;95132.72;;;8.73;52.41
22938;BME280;11634;42.734;23.298;2023-04-07T10:41:39;95198.19;;;9.38;52.01
22938;BME280;11634;42.734;23.298;2023-04-07T10:49:21;95212.22;;;8.74;53.97
22938;BME280;11634;42.734;23.298;2023-04-07T10:54:37;95209.84;;;9.23;53.10
22938;BME280;11634;42.734;23.298;2023-04-07T10:57:13;95209.00;;;9.23;53.52
22938;BME280;11634;42.734;23.298;2023-04-07T10:59:41;95188.00;;;9.26;52.99
22938;BME280;11634;42.734;23.298;2023-04-07T11:04:37;95218.19;;;9.06;52.93
22938;BME280;11634;42.734;23.298;2023-04-07T11:07:03;95196.72;;;9.25;53.06
22938;BME280;11634;42.734;23.298;2023-04-07T11:09:32;95167.59;;;9.01;52.85
22938;BME280;11634;42.734;23.298;2023-04-07T11:11:57;95226.09;;;9.25;52.74
22938;BME280;11634;42.734;23.298;2023-04-07T11:14:31;95200.59;;;9.60;52.18
22938;BME280;11634;42.734;23.298;2023-04-07T11:16:58;95216.16;;;8.89;53.02
22938;BME280;11634;42.734;23.298;2023-04-07T11:19:24;95191.03;;;9.10;53.73
22938;BME280;11634;42.734;23.298;2023-04-07T11:21:49;95190.91;;;9.62;52.79
22938;BME280;11634;42.734;23.298;2023-04-07T11:24:51;95213.28;;;9.53;52.44
22938;BME280;11634;42.734;23.298;2023-04-07T11:27:16;95206.81;;;9.68;52.43
22938;BME280;11634;42.734;23.298;2023-04-07T11:29:45;95221.44;;;9.69;51.51
22938;BME280;11634;42.734;23.298;2023-04-07T11:32:11;95210.09;;;9.40;52.47
22938;BME280;11634;42.734;23.298;2023-04-07T11:34:37;95210.59;;;9.94;52.22
22938;BME280;11634;42.734;23.298;2023-04-07T11:37:19;95200.69;;;9.79;51.91
22938;BME280;11634;42.734;23.298;2023-04-07T11:39:58;95206.69;;;9.49;53.18
22938;BME280;11634;42.734;23.298;2023-04-07T11:42:34;95181.03;;;9.56;53.47
22938;BME280;11634;42.734;23.298;2023-04-07T11:45:00;95101.84;;;8.91;53.81
22938;BME280;11634;42.734;23.298;2023-04-07T11:47:37;95200.91;;;9.66;53.57
22938;BME280;11634;42.734;23.298;2023-04-07T11:50:03;95224.22;;;9.47;53.58
22938;BME280;11634;42.734;23.298;2023-04-07T11:52:46;95215.03;;;9.43;53.94
22938;BME280;11634;42.734;23.298;2023-04-07T11:55:19;95199.78;;;9.29;53.03
22938;BME280;11634;42.734;23.298;2023-04-07T11:57:47;95195.97;;;9.63;52.73
22938;BME280;11634;42.734;23.298;2023-04-07T12:00:13;95207.50;;;9.70;53.20
22938;BME280;11634;42.734;23.298;2023-04-07T12:02:40;95202.44;;;9.48;53.16
22938;BME280;11634;42.734;23.298;2023-04-07T12:05:06;95212.94;;;9.67;53.85
22938;BME280;11634;42.734;23.298;2023-04-07T12:07:35;95158.81;;;9.13;53.29
22938;BME280;11634;42.734;23.298;2023-04-07T12:10:19;95111.41;;;8.90;53.72
22938;BME280;11634;42.734;23.298;2023-04-07T12:12:47;95223.72;;;9.63;53.64
22938;BME280;11634;42.734;23.298;2023-04-07T12:15:14;95187.53;;;10.00;52.71
22938;BME280;11634;42.734;23.298;2023-04-07T12:17:44;95160.31;;;10.04;52.20
22938;BME280;11634;42.734;23.298;2023-04-07T12:20:12;95186.00;;;9.98;52.88
22938;BME280;11634;42.734;23.298;2023-04-07T12:22:38;95142.94;;;9.36;53.63
22938;BME280;11634;42.734;23.298;2023-04-07T12:25:04;95209.91;;;9.92;53.52
22938;BME280;11634;42.734;23.298;2023-04-07T12:27:30;95207.19;;;9.93;53.00
22938;BME280;11634;42.734;23.298;2023-04-07T12:29:56;95204.22;;;9.98;53.12
22938;BME280;11634;42.734;23.298;2023-04-07T12:32:21;95204.97;;;9.89;53.39
22938;BME280;11634;42.734;23.298;2023-04-07T12:34:47;95221.19;;;10.02;53.41
22938;BME280;11634;42.734;23.298;2023-04-07T12:37:12;95213.91;;;9.66;53.65
22938;BME280;11634;42.734;23.298;2023-04-07T12:39:38;95164.47;;;9.47;52.64
22938;BME280;11634;42.734;23.298;2023-04-07T12:42:03;95186.19;;;9.76;53.41
22938;BME280;11634;42.734;23.298;2023-04-07T12:44:29;95198.78;;;9.51;52.82
22938;BME280;11634;42.734;23.298;2023-04-07T12:46:55;95194.66;;;9.48;53.32
22938;BME280;11634;42.734;23.298;2023-04-07T12:49:21;95201.50;;;9.79;53.79
22938;BME280;11634;42.734;23.298;2023-04-07T12:51:46;95173.69;;;9.61;53.44
22938;BME280;11634;42.734;23.298;2023-04-07T12:54:12;95182.06;;;9.74;53.17
22938;BME280;11634;42.734;23.298;2023-04-07T12:56:37;95208.94;;;9.63;52.72
22938;BME280;11634;42.734;23.298;2023-04-07T12:59:05;95218.66;;;9.61;53.36
22938;BME280;11634;42.734;23.298;2023-04-07T13:01:30;95195.88;;;9.44;53.56
22938;BME280;11634;42.734;23.298;2023-04-07T13:03:57;95197.19;;;9.29;53.38
22938;BME280;11634;42.734;23.298;2023-04-07T13:06:22;95215.03;;;9.43;54.18
22938;BME280;11634;42.734;23.298;2023-04-07T13:08:48;95222.69;;;9.25;54.61
22938;BME280;11634;42.734;23.298;2023-04-07T13:11:14;95217.88;;;9.40;55.26
22938;BME280;11634;42.734;23.298;2023-04-07T13:13:39;95196.41;;;9.38;55.29
22938;BME280;11634;42.734;23.298;2023-04-07T13:16:05;95210.09;;;9.20;55.60
22938;BME280;11634;42.734;23.298;2023-04-07T13:18:31;95223.28;;;9.58;54.31
22938;BME280;11634;42.734;23.298;2023-04-07T13:20:56;95222.88;;;9.32;54.26
22938;BME280;11634;42.734;23.298;2023-04-07T13:23:22;95208.78;;;9.26;54.70
22938;BME280;11634;42.734;23.298;2023-04-07T13:25:47;95219.16;;;9.05;55.53